sensor_id;sensor_type;location;lat;lon;timestamp;P1;durP1;ratioP1;P2;durP2;ratioP2
56752;SDS011;42627;42.646;23.642;2023-05-09T00:01:53;8.38;;;3.25;;
56752;SDS011;42627;42.646;23.642;2023-05-09T00:06:31;6.10;;;3.45;;
56752;SDS011;42627;42.646;23.642;2023-05-09T00:08:38;7.05;;;3.75;;
56752;SDS011;42627;42.646;23.642;2023-05-09T00:10:40;6.88;;;3.83;;
56752;SDS011;42627;42.646;23.642;2023-05-09T00:12:41;9.18;;;4.20;;
56752;SDS011;42627;42.646;23.642;2023-05-09T00:14:42;6.20;;;3.47;;
56752;SDS011;42627;42.646;23.642;2023-05-09T00:16:44;5.22;;;3.05;;
56752;SDS011;42627;42.646;23.642;2023-05-09T00:18:45;6.68;;;3.92;;
56752;SDS011;42627;42.646;23.642;2023-05-09T00:20:47;6.25;;;3.42;;
56752;SDS011;42627;42.646;23.642;2023-05-09T00:23:06;7.03;;;3.58;;
56752;SDS011;42627;42.646;23.642;2023-05-09T00:25:07;6.00;;;3.58;;
56752;SDS011;42627;42.646;23.642;2023-05-09T00:27:09;5.65;;;3.45;;
56752;SDS011;42627;42.646;23.642;2023-05-09T00:29:19;6.03;;;3.88;;
56752;SDS011;42627;42.646;23.642;2023-05-09T00:31:20;6.55;;;4.03;;
56752;SDS011;42627;42.646;23.642;2023-05-09T00:38:28;6.88;;;3.70;;
56752;SDS011;42627;42.646;23.642;2023-05-09T00:40:29;7.20;;;4.18;;
56752;SDS011;42627;42.646;23.642;2023-05-09T00:42:30;7.30;;;4.07;;
56752;SDS011;42627;42.646;23.642;2023-05-09T00:44:31;5.72;;;3.65;;
56752;SDS011;42627;42.646;23.642;2023-05-09T00:46:32;9.23;;;3.95;;
56752;SDS011;42627;42.646;23.642;2023-05-09T00:48:33;7.05;;;4.35;;
56752;SDS011;42627;42.646;23.642;2023-05-09T00:50:34;7.47;;;4.00;;
56752;SDS011;42627;42.646;23.642;2023-05-09T00:54:47;6.45;;;3.90;;
56752;SDS011;42627;42.646;23.642;2023-05-09T00:56:49;7.30;;;3.95;;
56752;SDS011;42627;42.646;23.642;2023-05-09T00:58:50;6.57;;;3.70;;
56752;SDS011;42627;42.646;23.642;2023-05-09T01:00:51;8.15;;;3.78;;
56752;SDS011;42627;42.646;23.642;2023-05-09T01:02:57;7.00;;;3.80;;
56752;SDS011;42627;42.646;23.642;2023-05-09T01:05:17;7.00;;;3.38;;
56752;SDS011;42627;42.646;23.642;2023-05-09T01:12:00;9.75;;;3.88;;
56752;SDS011;42627;42.646;23.642;2023-05-09T01:16:58;7.15;;;4.65;;
56752;SDS011;42627;42.646;23.642;2023-05-09T01:21:02;6.53;;;3.75;;
56752;SDS011;42627;42.646;23.642;2023-05-09T01:25:32;6.30;;;3.30;;
56752;SDS011;42627;42.646;23.642;2023-05-09T01:27:38;6.55;;;3.67;;
56752;SDS011;42627;42.646;23.642;2023-05-09T01:29:47;6.65;;;3.60;;
56752;SDS011;42627;42.646;23.642;2023-05-09T01:31:48;6.32;;;3.20;;
56752;SDS011;42627;42.646;23.642;2023-05-09T01:34:01;7.43;;;3.90;;
56752;SDS011;42627;42.646;23.642;2023-05-09T01:36:16;5.82;;;3.45;;
56752;SDS011;42627;42.646;23.642;2023-05-09T01:38:22;6.28;;;3.50;;
56752;SDS011;42627;42.646;23.642;2023-05-09T01:40:25;5.10;;;3.17;;
56752;SDS011;42627;42.646;23.642;2023-05-09T01:42:31;4.72;;;3.25;;
56752;SDS011;42627;42.646;23.642;2023-05-09T01:46:34;6.07;;;2.97;;
56752;SDS011;42627;42.646;23.642;2023-05-09T01:48:35;8.07;;;3.38;;
56752;SDS011;42627;42.646;23.642;2023-05-09T01:50:37;6.90;;;3.47;;
56752;SDS011;42627;42.646;23.642;2023-05-09T01:54:50;6.35;;;3.38;;
56752;SDS011;42627;42.646;23.642;2023-05-09T01:56:52;7.22;;;3.55;;
56752;SDS011;42627;42.646;23.642;2023-05-09T01:58:54;6.60;;;3.63;;
56752;SDS011;42627;42.646;23.642;2023-05-09T02:00:56;6.80;;;3.55;;
56752;SDS011;42627;42.646;23.642;2023-05-09T02:07:54;6.03;;;3.60;;
56752;SDS011;42627;42.646;23.642;2023-05-09T02:09:59;6.45;;;3.30;;
56752;SDS011;42627;42.646;23.642;2023-05-09T02:12:00;6.93;;;3.45;;
56752;SDS011;42627;42.646;23.642;2023-05-09T02:14:03;5.47;;;3.28;;
56752;SDS011;42627;42.646;23.642;2023-05-09T02:16:05;5.05;;;3.03;;
56752;SDS011;42627;42.646;23.642;2023-05-09T02:18:06;6.78;;;3.95;;
56752;SDS011;42627;42.646;23.642;2023-05-09T02:20:08;7.22;;;3.78;;
56752;SDS011;42627;42.646;23.642;2023-05-09T02:22:15;5.25;;;3.35;;
56752;SDS011;42627;42.646;23.642;2023-05-09T02:24:16;7.43;;;3.42;;
56752;SDS011;42627;42.646;23.642;2023-05-09T02:26:17;5.30;;;3.10;;
56752;SDS011;42627;42.646;23.642;2023-05-09T02:28:19;5.07;;;2.72;;
56752;SDS011;42627;42.646;23.642;2023-05-09T02:30:22;5.90;;;3.05;;
56752;SDS011;42627;42.646;23.642;2023-05-09T02:37:21;4.32;;;2.97;;
56752;SDS011;42627;42.646;23.642;2023-05-09T02:39:23;7.20;;;3.50;;
56752;SDS011;42627;42.646;23.642;2023-05-09T02:41:25;4.63;;;2.80;;
56752;SDS011;42627;42.646;23.642;2023-05-09T02:43:29;6.67;;;2.73;;
56752;SDS011;42627;42.646;23.642;2023-05-09T02:45:30;5.78;;;2.42;;
56752;SDS011;42627;42.646;23.642;2023-05-09T02:47:31;4.75;;;2.50;;
56752;SDS011;42627;42.646;23.642;2023-05-09T02:49:32;5.22;;;2.50;;
56752;SDS011;42627;42.646;23.642;2023-05-09T02:53:44;3.65;;;1.85;;
56752;SDS011;42627;42.646;23.642;2023-05-09T02:55:45;3.80;;;1.67;;
56752;SDS011;42627;42.646;23.642;2023-05-09T02:57:46;2.78;;;1.40;;
56752;SDS011;42627;42.646;23.642;2023-05-09T02:59:47;2.85;;;1.50;;
56752;SDS011;42627;42.646;23.642;2023-05-09T03:01:48;3.05;;;1.40;;
56752;SDS011;42627;42.646;23.642;2023-05-09T03:03:49;1.77;;;1.20;;
56752;SDS011;42627;42.646;23.642;2023-05-09T03:10:50;1.52;;;0.80;;
56752;SDS011;42627;42.646;23.642;2023-05-09T03:12:51;1.42;;;0.90;;
56752;SDS011;42627;42.646;23.642;2023-05-09T03:14:52;1.45;;;0.80;;
56752;SDS011;42627;42.646;23.642;2023-05-09T03:16:53;1.77;;;0.70;;
56752;SDS011;42627;42.646;23.642;2023-05-09T03:18:54;1.48;;;0.85;;
56752;SDS011;42627;42.646;23.642;2023-05-09T03:20:55;2.00;;;0.90;;
56752;SDS011;42627;42.646;23.642;2023-05-09T03:22:56;1.55;;;0.82;;
56752;SDS011;42627;42.646;23.642;2023-05-09T03:24:57;1.25;;;0.60;;
56752;SDS011;42627;42.646;23.642;2023-05-09T03:27:03;1.08;;;0.73;;
56752;SDS011;42627;42.646;23.642;2023-05-09T03:29:04;1.13;;;0.80;;
56752;SDS011;42627;42.646;23.642;2023-05-09T03:31:17;1.00;;;0.70;;
56752;SDS011;42627;42.646;23.642;2023-05-09T03:33:19;1.40;;;0.88;;
56752;SDS011;42627;42.646;23.642;2023-05-09T03:35:20;1.33;;;0.80;;
56752;SDS011;42627;42.646;23.642;2023-05-09T03:42:06;1.05;;;0.60;;
56752;SDS011;42627;42.646;23.642;2023-05-09T03:44:07;2.03;;;1.10;;
56752;SDS011;42627;42.646;23.642;2023-05-09T03:46:08;2.08;;;1.10;;
56752;SDS011;42627;42.646;23.642;2023-05-09T03:48:09;1.73;;;0.90;;
56752;SDS011;42627;42.646;23.642;2023-05-09T03:50:10;2.63;;;1.10;;
56752;SDS011;42627;42.646;23.642;2023-05-09T03:52:11;3.05;;;1.67;;
56752;SDS011;42627;42.646;23.642;2023-05-09T03:54:12;5.03;;;2.08;;
56752;SDS011;42627;42.646;23.642;2023-05-09T03:56:13;3.28;;;1.63;;
56752;SDS011;42627;42.646;23.642;2023-05-09T03:58:14;4.93;;;1.73;;
56752;SDS011;42627;42.646;23.642;2023-05-09T04:00:18;3.63;;;1.90;;
56752;SDS011;42627;42.646;23.642;2023-05-09T04:02:19;3.17;;;1.40;;
56752;SDS011;42627;42.646;23.642;2023-05-09T04:04:20;1.50;;;1.33;;
56752;SDS011;42627;42.646;23.642;2023-05-09T04:11:20;1.70;;;0.90;;
56752;SDS011;42627;42.646;23.642;2023-05-09T04:13:21;2.33;;;0.80;;
56752;SDS011;42627;42.646;23.642;2023-05-09T04:15:22;2.38;;;0.80;;
56752;SDS011;42627;42.646;23.642;2023-05-09T04:17:23;1.35;;;0.80;;
56752;SDS011;42627;42.646;23.642;2023-05-09T04:19:24;1.55;;;0.85;;
56752;SDS011;42627;42.646;23.642;2023-05-09T04:21:25;2.20;;;1.30;;
56752;SDS011;42627;42.646;23.642;2023-05-09T04:23:26;2.10;;;1.00;;
56752;SDS011;42627;42.646;23.642;2023-05-09T04:25:27;1.63;;;1.00;;
56752;SDS011;42627;42.646;23.642;2023-05-09T04:27:30;2.78;;;1.20;;
56752;SDS011;42627;42.646;23.642;2023-05-09T04:29:31;1.40;;;0.88;;
56752;SDS011;42627;42.646;23.642;2023-05-09T04:31:33;2.40;;;1.20;;
56752;SDS011;42627;42.646;23.642;2023-05-09T04:33:34;1.15;;;0.77;;
56752;SDS011;42627;42.646;23.642;2023-05-09T04:35:55;2.10;;;1.02;;
56752;SDS011;42627;42.646;23.642;2023-05-09T04:40:33;1.77;;;1.23;;
56752;SDS011;42627;42.646;23.642;2023-05-09T04:42:35;1.80;;;0.90;;
56752;SDS011;42627;42.646;23.642;2023-05-09T04:44:36;1.50;;;0.85;;
56752;SDS011;42627;42.646;23.642;2023-05-09T04:46:37;3.55;;;1.17;;
56752;SDS011;42627;42.646;23.642;2023-05-09T04:48:38;1.65;;;0.85;;
56752;SDS011;42627;42.646;23.642;2023-05-09T04:50:39;0.70;;;0.40;;
56752;SDS011;42627;42.646;23.642;2023-05-09T04:52:40;0.40;;;0.40;;
56752;SDS011;42627;42.646;23.642;2023-05-09T04:56:52;1.65;;;0.45;;
56752;SDS011;42627;42.646;23.642;2023-05-09T04:58:53;0.32;;;0.30;;
56752;SDS011;42627;42.646;23.642;2023-05-09T05:00:54;0.70;;;0.52;;
56752;SDS011;42627;42.646;23.642;2023-05-09T05:02:55;0.65;;;0.50;;
56752;SDS011;42627;42.646;23.642;2023-05-09T05:10:04;0.52;;;0.50;;
56752;SDS011;42627;42.646;23.642;2023-05-09T05:12:05;0.60;;;0.40;;
56752;SDS011;42627;42.646;23.642;2023-05-09T05:14:07;0.80;;;0.50;;
56752;SDS011;42627;42.646;23.642;2023-05-09T05:16:08;0.63;;;0.60;;
56752;SDS011;42627;42.646;23.642;2023-05-09T05:18:09;0.75;;;0.47;;
56752;SDS011;42627;42.646;23.642;2023-05-09T05:20:11;0.95;;;0.52;;
56752;SDS011;42627;42.646;23.642;2023-05-09T05:22:12;0.60;;;0.50;;
56752;SDS011;42627;42.646;23.642;2023-05-09T05:26:24;0.63;;;0.50;;
56752;SDS011;42627;42.646;23.642;2023-05-09T05:28:25;1.70;;;1.27;;
56752;SDS011;42627;42.646;23.642;2023-05-09T05:32:36;1.08;;;0.70;;
56752;SDS011;42627;42.646;23.642;2023-05-09T05:34:37;1.13;;;0.88;;
56752;SDS011;42627;42.646;23.642;2023-05-09T05:36:39;3.67;;;0.90;;
56752;SDS011;42627;42.646;23.642;2023-05-09T05:38:40;1.95;;;0.70;;
56752;SDS011;42627;42.646;23.642;2023-05-09T05:43:42;1.17;;;0.80;;
56752;SDS011;42627;42.646;23.642;2023-05-09T05:45:43;0.98;;;0.63;;
56752;SDS011;42627;42.646;23.642;2023-05-09T05:47:44;1.15;;;0.70;;
56752;SDS011;42627;42.646;23.642;2023-05-09T05:49:45;0.93;;;0.57;;
56752;SDS011;42627;42.646;23.642;2023-05-09T05:51:46;1.70;;;0.85;;
56752;SDS011;42627;42.646;23.642;2023-05-09T05:53:47;1.63;;;0.90;;
56752;SDS011;42627;42.646;23.642;2023-05-09T05:55:48;2.30;;;1.20;;
56752;SDS011;42627;42.646;23.642;2023-05-09T05:57:49;2.05;;;0.98;;
56752;SDS011;42627;42.646;23.642;2023-05-09T05:59:56;2.45;;;1.42;;
56752;SDS011;42627;42.646;23.642;2023-05-09T06:01:57;3.38;;;1.60;;
56752;SDS011;42627;42.646;23.642;2023-05-09T06:03:58;1.60;;;0.95;;
56752;SDS011;42627;42.646;23.642;2023-05-09T06:05:59;2.20;;;1.23;;
56752;SDS011;42627;42.646;23.642;2023-05-09T06:08:00;2.08;;;0.90;;
56752;SDS011;42627;42.646;23.642;2023-05-09T06:14:56;2.60;;;1.00;;
56752;SDS011;42627;42.646;23.642;2023-05-09T06:16:57;2.13;;;0.85;;
56752;SDS011;42627;42.646;23.642;2023-05-09T06:18:58;1.35;;;0.47;;
56752;SDS011;42627;42.646;23.642;2023-05-09T06:20:59;1.15;;;0.80;;
56752;SDS011;42627;42.646;23.642;2023-05-09T06:23:00;1.60;;;0.65;;
56752;SDS011;42627;42.646;23.642;2023-05-09T06:25:01;1.08;;;0.65;;
56752;SDS011;42627;42.646;23.642;2023-05-09T06:27:03;1.33;;;0.63;;
56752;SDS011;42627;42.646;23.642;2023-05-09T06:29:09;1.00;;;0.55;;
56752;SDS011;42627;42.646;23.642;2023-05-09T06:31:10;0.88;;;0.50;;
56752;SDS011;42627;42.646;23.642;2023-05-09T06:33:11;0.93;;;0.60;;
56752;SDS011;42627;42.646;23.642;2023-05-09T06:35:12;0.77;;;0.50;;
56752;SDS011;42627;42.646;23.642;2023-05-09T06:37:14;0.85;;;0.47;;
56752;SDS011;42627;42.646;23.642;2023-05-09T06:44:21;0.73;;;0.50;;
56752;SDS011;42627;42.646;23.642;2023-05-09T06:46:22;1.02;;;0.75;;
56752;SDS011;42627;42.646;23.642;2023-05-09T06:48:23;1.60;;;0.60;;
56752;SDS011;42627;42.646;23.642;2023-05-09T06:50:24;0.55;;;0.50;;
56752;SDS011;42627;42.646;23.642;2023-05-09T06:52:25;0.93;;;0.60;;
56752;SDS011;42627;42.646;23.642;2023-05-09T06:54:26;3.30;;;0.55;;
56752;SDS011;42627;42.646;23.642;2023-05-09T06:56:27;1.27;;;0.68;;
56752;SDS011;42627;42.646;23.642;2023-05-09T07:00:39;0.70;;;0.47;;
56752;SDS011;42627;42.646;23.642;2023-05-09T07:02:40;0.93;;;0.60;;
56752;SDS011;42627;42.646;23.642;2023-05-09T07:04:41;0.50;;;0.50;;
56752;SDS011;42627;42.646;23.642;2023-05-09T07:06:42;0.82;;;0.60;;
56752;SDS011;42627;42.646;23.642;2023-05-09T07:08:43;4.13;;;0.60;;
56752;SDS011;42627;42.646;23.642;2023-05-09T07:10:44;4.60;;;0.82;;
56752;SDS011;42627;42.646;23.642;2023-05-09T07:20:23;1.42;;;0.63;;
56752;SDS011;42627;42.646;23.642;2023-05-09T07:22:24;1.27;;;0.80;;
56752;SDS011;42627;42.646;23.642;2023-05-09T07:24:25;2.15;;;0.80;;
56752;SDS011;42627;42.646;23.642;2023-05-09T07:26:26;1.10;;;0.63;;
56752;SDS011;42627;42.646;23.642;2023-05-09T07:28:45;1.38;;;0.60;;
56752;SDS011;42627;42.646;23.642;2023-05-09T07:31:01;1.02;;;0.60;;
56752;SDS011;42627;42.646;23.642;2023-05-09T07:33:03;0.93;;;0.70;;
56752;SDS011;42627;42.646;23.642;2023-05-09T07:37:28;1.98;;;1.00;;
56752;SDS011;42627;42.646;23.642;2023-05-09T07:39:29;1.10;;;0.65;;
56752;SDS011;42627;42.646;23.642;2023-05-09T07:41:30;1.45;;;0.88;;
56752;SDS011;42627;42.646;23.642;2023-05-09T07:45:42;1.42;;;0.70;;
56752;SDS011;42627;42.646;23.642;2023-05-09T07:47:43;1.55;;;0.70;;
56752;SDS011;42627;42.646;23.642;2023-05-09T07:49:44;1.35;;;0.90;;
56752;SDS011;42627;42.646;23.642;2023-05-09T07:51:46;1.85;;;0.50;;
56752;SDS011;42627;42.646;23.642;2023-05-09T07:53:57;0.73;;;0.50;;
56752;SDS011;42627;42.646;23.642;2023-05-09T08:00:42;0.68;;;0.50;;
56752;SDS011;42627;42.646;23.642;2023-05-09T08:02:44;0.90;;;0.50;;
56752;SDS011;42627;42.646;23.642;2023-05-09T08:04:45;0.38;;;0.30;;
56752;SDS011;42627;42.646;23.642;2023-05-09T08:06:47;0.90;;;0.40;;
56752;SDS011;42627;42.646;23.642;2023-05-09T08:08:48;0.95;;;0.60;;
56752;SDS011;42627;42.646;23.642;2023-05-09T08:10:49;0.98;;;0.70;;
56752;SDS011;42627;42.646;23.642;2023-05-09T08:12:51;0.35;;;0.35;;
56752;SDS011;42627;42.646;23.642;2023-05-09T08:14:52;1.35;;;0.60;;
56752;SDS011;42627;42.646;23.642;2023-05-09T08:16:53;1.00;;;0.50;;
56752;SDS011;42627;42.646;23.642;2023-05-09T08:18:54;0.90;;;0.60;;
56752;SDS011;42627;42.646;23.642;2023-05-09T08:20:55;1.17;;;0.63;;
56752;SDS011;42627;42.646;23.642;2023-05-09T08:22:59;1.45;;;0.60;;
56752;SDS011;42627;42.646;23.642;2023-05-09T08:25:00;2.13;;;0.77;;
56752;SDS011;42627;42.646;23.642;2023-05-09T08:27:01;0.82;;;0.45;;
56752;SDS011;42627;42.646;23.642;2023-05-09T08:29:02;2.50;;;0.70;;
56752;SDS011;42627;42.646;23.642;2023-05-09T08:31:03;0.68;;;0.40;;
56752;SDS011;42627;42.646;23.642;2023-05-09T08:33:04;0.88;;;0.55;;
56752;SDS011;42627;42.646;23.642;2023-05-09T08:35:05;0.90;;;0.70;;
56752;SDS011;42627;42.646;23.642;2023-05-09T08:37:07;1.90;;;0.65;;
56752;SDS011;42627;42.646;23.642;2023-05-09T08:39:09;0.70;;;0.60;;
56752;SDS011;42627;42.646;23.642;2023-05-09T08:41:10;0.80;;;0.50;;
56752;SDS011;42627;42.646;23.642;2023-05-09T08:45:24;1.52;;;0.50;;
56752;SDS011;42627;42.646;23.642;2023-05-09T08:47:28;1.35;;;0.60;;
56752;SDS011;42627;42.646;23.642;2023-05-09T08:49:31;1.77;;;0.55;;
56752;SDS011;42627;42.646;23.642;2023-05-09T08:51:33;1.10;;;0.63;;
56752;SDS011;42627;42.646;23.642;2023-05-09T08:58:41;0.82;;;0.38;;
56752;SDS011;42627;42.646;23.642;2023-05-09T09:00:43;5.18;;;0.80;;
56752;SDS011;42627;42.646;23.642;2023-05-09T09:02:44;1.33;;;0.60;;
56752;SDS011;42627;42.646;23.642;2023-05-09T09:04:45;0.70;;;0.52;;
56752;SDS011;42627;42.646;23.642;2023-05-09T09:09:24;1.13;;;0.70;;
56752;SDS011;42627;42.646;23.642;2023-05-09T09:13:36;1.40;;;0.70;;
56752;SDS011;42627;42.646;23.642;2023-05-09T09:15:40;1.00;;;0.52;;
56752;SDS011;42627;42.646;23.642;2023-05-09T09:17:42;0.40;;;0.32;;
56752;SDS011;42627;42.646;23.642;2023-05-09T09:19:48;0.73;;;0.40;;
56752;SDS011;42627;42.646;23.642;2023-05-09T09:21:50;0.30;;;0.30;;
56752;SDS011;42627;42.646;23.642;2023-05-09T09:23:54;0.88;;;0.45;;
56752;SDS011;42627;42.646;23.642;2023-05-09T09:25:56;0.40;;;0.30;;
56752;SDS011;42627;42.646;23.642;2023-05-09T09:35:03;0.30;;;0.30;;
56752;SDS011;42627;42.646;23.642;2023-05-09T09:37:05;0.65;;;0.45;;
56752;SDS011;42627;42.646;23.642;2023-05-09T09:39:07;0.35;;;0.20;;
56752;SDS011;42627;42.646;23.642;2023-05-09T09:41:08;0.82;;;0.30;;
56752;SDS011;42627;42.646;23.642;2023-05-09T09:43:18;1.00;;;0.50;;
56752;SDS011;42627;42.646;23.642;2023-05-09T09:45:19;0.93;;;0.40;;
56752;SDS011;42627;42.646;23.642;2023-05-09T09:47:20;1.00;;;0.50;;
56752;SDS011;42627;42.646;23.642;2023-05-09T09:49:30;1.35;;;0.55;;
56752;SDS011;42627;42.646;23.642;2023-05-09T09:51:37;1.55;;;0.43;;
56752;SDS011;42627;42.646;23.642;2023-05-09T09:53:39;0.47;;;0.47;;
56752;SDS011;42627;42.646;23.642;2023-05-09T09:55:48;1.35;;;0.60;;
56752;SDS011;42627;42.646;23.642;2023-05-09T10:00:00;0.75;;;0.50;;
56752;SDS011;42627;42.646;23.642;2023-05-09T10:02:04;0.40;;;0.40;;
56752;SDS011;42627;42.646;23.642;2023-05-09T10:04:14;0.93;;;0.47;;
56752;SDS011;42627;42.646;23.642;2023-05-09T10:06:15;0.68;;;0.40;;
56752;SDS011;42627;42.646;23.642;2023-05-09T10:08:16;0.70;;;0.50;;
56752;SDS011;42627;42.646;23.642;2023-05-09T10:10:17;0.68;;;0.60;;
56752;SDS011;42627;42.646;23.642;2023-05-09T10:12:18;1.13;;;0.60;;
56752;SDS011;42627;42.646;23.642;2023-05-09T10:14:37;1.10;;;0.90;;
56752;SDS011;42627;42.646;23.642;2023-05-09T10:17:03;4.95;;;1.38;;
56752;SDS011;42627;42.646;23.642;2023-05-09T10:19:04;1.10;;;0.77;;
56752;SDS011;42627;42.646;23.642;2023-05-09T10:21:08;1.20;;;0.50;;
56752;SDS011;42627;42.646;23.642;2023-05-09T10:23:14;0.98;;;0.63;;
56752;SDS011;42627;42.646;23.642;2023-05-09T10:25:18;0.65;;;0.50;;
56752;SDS011;42627;42.646;23.642;2023-05-09T10:27:21;1.00;;;0.55;;
56752;SDS011;42627;42.646;23.642;2023-05-09T10:29:22;8.35;;;1.05;;
56752;SDS011;42627;42.646;23.642;2023-05-09T10:31:25;3.10;;;1.05;;
56752;SDS011;42627;42.646;23.642;2023-05-09T10:33:30;0.60;;;0.50;;
56752;SDS011;42627;42.646;23.642;2023-05-09T10:35:43;1.10;;;0.50;;
56752;SDS011;42627;42.646;23.642;2023-05-09T10:37:44;2.00;;;1.08;;
56752;SDS011;42627;42.646;23.642;2023-05-09T10:39:48;0.80;;;0.60;;
56752;SDS011;42627;42.646;23.642;2023-05-09T10:41:52;2.92;;;1.27;;
56752;SDS011;42627;42.646;23.642;2023-05-09T10:43:57;1.67;;;0.93;;
56752;SDS011;42627;42.646;23.642;2023-05-09T10:45:58;1.98;;;0.90;;
56752;SDS011;42627;42.646;23.642;2023-05-09T10:48:05;1.48;;;0.50;;
56752;SDS011;42627;42.646;23.642;2023-05-09T10:55:23;0.57;;;0.40;;
56752;SDS011;42627;42.646;23.642;2023-05-09T10:57:35;1.27;;;0.60;;
56752;SDS011;42627;42.646;23.642;2023-05-09T10:59:39;0.52;;;0.40;;
56752;SDS011;42627;42.646;23.642;2023-05-09T11:01:41;1.48;;;0.75;;
56752;SDS011;42627;42.646;23.642;2023-05-09T11:03:52;0.88;;;0.50;;
56752;SDS011;42627;42.646;23.642;2023-05-09T11:05:54;1.33;;;0.73;;
56752;SDS011;42627;42.646;23.642;2023-05-09T11:10:18;6.53;;;0.70;;
56752;SDS011;42627;42.646;23.642;2023-05-09T11:12:19;2.45;;;1.10;;
56752;SDS011;42627;42.646;23.642;2023-05-09T11:14:30;2.58;;;1.25;;
56752;SDS011;42627;42.646;23.642;2023-05-09T11:16:31;2.88;;;1.10;;
56752;SDS011;42627;42.646;23.642;2023-05-09T11:19:14;3.30;;;1.15;;
56752;SDS011;42627;42.646;23.642;2023-05-09T11:21:58;2.95;;;1.23;;
56752;SDS011;42627;42.646;23.642;2023-05-09T11:23:59;1.67;;;0.85;;
56752;SDS011;42627;42.646;23.642;2023-05-09T11:26:15;0.57;;;0.40;;
56752;SDS011;42627;42.646;23.642;2023-05-09T11:28:50;0.90;;;0.50;;
56752;SDS011;42627;42.646;23.642;2023-05-09T11:30:43;1.23;;;0.40;;
56752;SDS011;42627;42.646;23.642;2023-05-09T11:34:45;1.63;;;0.68;;
56752;SDS011;42627;42.646;23.642;2023-05-09T11:36:52;1.33;;;0.77;;
56752;SDS011;42627;42.646;23.642;2023-05-09T11:39:09;1.02;;;0.50;;
56752;SDS011;42627;42.646;23.642;2023-05-09T11:41:11;1.87;;;0.77;;
56752;SDS011;42627;42.646;23.642;2023-05-09T11:43:12;0.50;;;0.50;;
56752;SDS011;42627;42.646;23.642;2023-05-09T11:45:14;5.55;;;0.73;;
56752;SDS011;42627;42.646;23.642;2023-05-09T11:47:21;2.25;;;0.60;;
56752;SDS011;42627;42.646;23.642;2023-05-09T11:49:37;1.55;;;0.88;;
56752;SDS011;42627;42.646;23.642;2023-05-09T11:51:53;0.82;;;0.52;;
56752;SDS011;42627;42.646;23.642;2023-05-09T11:53:59;0.88;;;0.50;;
56752;SDS011;42627;42.646;23.642;2023-05-09T11:56:03;2.85;;;0.90;;
56752;SDS011;42627;42.646;23.642;2023-05-09T12:00:06;1.10;;;0.38;;
56752;SDS011;42627;42.646;23.642;2023-05-09T12:02:09;0.40;;;0.30;;
56752;SDS011;42627;42.646;23.642;2023-05-09T12:04:10;0.88;;;0.40;;
56752;SDS011;42627;42.646;23.642;2023-05-09T12:08:23;0.20;;;0.20;;
56752;SDS011;42627;42.646;23.642;2023-05-09T12:10:24;0.38;;;0.28;;
56752;SDS011;42627;42.646;23.642;2023-05-09T12:12:25;1.98;;;0.50;;
56752;SDS011;42627;42.646;23.642;2023-05-09T12:14:29;1.65;;;0.38;;
56752;SDS011;42627;42.646;23.642;2023-05-09T12:16:30;2.15;;;0.40;;
56752;SDS011;42627;42.646;23.642;2023-05-09T12:18:33;0.98;;;0.50;;
56752;SDS011;42627;42.646;23.642;2023-05-09T12:20:47;0.55;;;0.38;;
56752;SDS011;42627;42.646;23.642;2023-05-09T12:28:08;0.52;;;0.43;;
56752;SDS011;42627;42.646;23.642;2023-05-09T12:30:10;0.85;;;0.30;;
56752;SDS011;42627;42.646;23.642;2023-05-09T12:32:13;1.92;;;0.30;;
56752;SDS011;42627;42.646;23.642;2023-05-09T12:34:15;0.50;;;0.38;;
56752;SDS011;42627;42.646;23.642;2023-05-09T12:36:16;1.48;;;0.50;;
56752;SDS011;42627;42.646;23.642;2023-05-09T12:38:20;1.67;;;0.50;;
56752;SDS011;42627;42.646;23.642;2023-05-09T12:40:22;0.45;;;0.40;;
56752;SDS011;42627;42.646;23.642;2023-05-09T12:42:33;0.85;;;0.43;;
56752;SDS011;42627;42.646;23.642;2023-05-09T12:44:34;1.13;;;0.47;;
56752;SDS011;42627;42.646;23.642;2023-05-09T12:46:36;0.90;;;0.40;;
56752;SDS011;42627;42.646;23.642;2023-05-09T12:48:39;1.52;;;0.68;;
56752;SDS011;42627;42.646;23.642;2023-05-09T12:50:55;1.05;;;0.45;;
56752;SDS011;42627;42.646;23.642;2023-05-09T12:58:00;0.22;;;0.22;;
56752;SDS011;42627;42.646;23.642;2023-05-09T13:00:03;2.67;;;0.52;;
56752;SDS011;42627;42.646;23.642;2023-05-09T13:02:05;1.15;;;0.70;;
56752;SDS011;42627;42.646;23.642;2023-05-09T13:04:07;1.33;;;0.70;;
56752;SDS011;42627;42.646;23.642;2023-05-09T13:06:11;1.02;;;0.70;;
56752;SDS011;42627;42.646;23.642;2023-05-09T13:08:17;1.80;;;0.70;;
56752;SDS011;42627;42.646;23.642;2023-05-09T13:12:30;0.63;;;0.40;;
56752;SDS011;42627;42.646;23.642;2023-05-09T13:14:32;1.00;;;0.40;;
56752;SDS011;42627;42.646;23.642;2023-05-09T13:16:33;0.40;;;0.40;;
56752;SDS011;42627;42.646;23.642;2023-05-09T13:18:34;0.50;;;0.38;;
56752;SDS011;42627;42.646;23.642;2023-05-09T13:20:51;1.52;;;0.50;;
56752;SDS011;42627;42.646;23.642;2023-05-09T13:23:10;2.83;;;0.90;;
56752;SDS011;42627;42.646;23.642;2023-05-09T13:25:23;1.05;;;0.52;;
56752;SDS011;42627;42.646;23.642;2023-05-09T13:27:24;1.50;;;0.80;;
56752;SDS011;42627;42.646;23.642;2023-05-09T13:29:26;0.85;;;0.60;;
56752;SDS011;42627;42.646;23.642;2023-05-09T13:31:28;1.73;;;0.50;;
56752;SDS011;42627;42.646;23.642;2023-05-09T13:33:29;1.02;;;0.70;;
56752;SDS011;42627;42.646;23.642;2023-05-09T13:35:30;0.80;;;0.40;;
56752;SDS011;42627;42.646;23.642;2023-05-09T13:37:31;0.65;;;0.40;;
56752;SDS011;42627;42.646;23.642;2023-05-09T13:39:34;0.55;;;0.40;;
56752;SDS011;42627;42.646;23.642;2023-05-09T13:41:40;2.92;;;0.63;;
56752;SDS011;42627;42.646;23.642;2023-05-09T13:43:41;0.82;;;0.50;;
56752;SDS011;42627;42.646;23.642;2023-05-09T13:45:44;0.95;;;0.43;;
56752;SDS011;42627;42.646;23.642;2023-05-09T13:47:45;0.43;;;0.28;;
56752;SDS011;42627;42.646;23.642;2023-05-09T13:49:49;0.65;;;0.40;;
56752;SDS011;42627;42.646;23.642;2023-05-09T13:51:51;0.45;;;0.40;;
56752;SDS011;42627;42.646;23.642;2023-05-09T13:53:52;0.52;;;0.40;;
56752;SDS011;42627;42.646;23.642;2023-05-09T13:58:11;0.82;;;0.65;;
56752;SDS011;42627;42.646;23.642;2023-05-09T14:00:12;1.08;;;0.50;;
56752;SDS011;42627;42.646;23.642;2023-05-09T14:02:13;0.85;;;0.35;;
56752;SDS011;42627;42.646;23.642;2023-05-09T14:04:15;0.80;;;0.55;;
56752;SDS011;42627;42.646;23.642;2023-05-09T14:11:24;2.83;;;0.60;;
56752;SDS011;42627;42.646;23.642;2023-05-09T14:13:25;0.65;;;0.50;;
56752;SDS011;42627;42.646;23.642;2023-05-09T14:15:27;1.38;;;0.70;;
56752;SDS011;42627;42.646;23.642;2023-05-09T14:17:28;0.80;;;0.70;;
56752;SDS011;42627;42.646;23.642;2023-05-09T14:19:29;0.73;;;0.43;;
56752;SDS011;42627;42.646;23.642;2023-05-09T14:21:31;0.52;;;0.30;;
56752;SDS011;42627;42.646;23.642;2023-05-09T14:23:32;0.77;;;0.47;;
56752;SDS011;42627;42.646;23.642;2023-05-09T14:25:51;1.15;;;0.40;;
56752;SDS011;42627;42.646;23.642;2023-05-09T14:27:52;1.40;;;0.57;;
56752;SDS011;42627;42.646;23.642;2023-05-09T14:29:53;1.33;;;0.50;;
56752;SDS011;42627;42.646;23.642;2023-05-09T14:31:55;0.90;;;0.60;;
56752;SDS011;42627;42.646;23.642;2023-05-09T14:33:56;0.88;;;0.50;;
56752;SDS011;42627;42.646;23.642;2023-05-09T14:41:06;1.35;;;0.80;;
56752;SDS011;42627;42.646;23.642;2023-05-09T14:43:07;1.58;;;0.60;;
56752;SDS011;42627;42.646;23.642;2023-05-09T14:45:08;1.15;;;0.50;;
56752;SDS011;42627;42.646;23.642;2023-05-09T14:47:11;0.57;;;0.50;;
56752;SDS011;42627;42.646;23.642;2023-05-09T14:49:12;0.65;;;0.45;;
56752;SDS011;42627;42.646;23.642;2023-05-09T14:51:13;0.75;;;0.52;;